Time;durP1;ratioP1;P1;durP2;ratioP2;P2;SDS_P1;SDS_P2;PMS_P1;PMS_P2;Temp;Humidity;BMP_temperature;BMP_pressure;BME280_temperature;BME280_humidity;BME280_pressure;Samples;Min_cycle;Max_cycle;Signal;HPM_P1;HPM_P2
2023/12/30 00:00:47;;;;;;;6.90;1.83;;;8.50;99.90;;;;;;5030943;28;20540;-68
2023/12/30 00:03:14;;;;;;;7.90;2.20;;;8.40;99.90;;;;;;5031563;28;20454;-68
2023/12/30 00:05:43;;;;;;;8.83;2.57;;;8.50;99.90;;;;;;5029425;28;20534;-68
2023/12/30 00:08:11;;;;;;;7.80;2.27;;;8.50;99.90;;;;;;5025927;28;20497;-68
2023/12/30 00:10:38;;;;;;;7.87;2.63;;;8.50;99.90;;;;;;5029291;28;20469;-68
2023/12/30 00:13:08;;;;;;;8.37;2.83;;;8.60;99.90;;;;;;5034531;28;20455;-68
2023/12/30 00:15:36;;;;;;;9.13;2.77;;;8.70;99.90;;;;;;5032014;28;20468;-68
2023/12/30 00:18:04;;;;;;;7.70;2.30;;;8.60;99.90;;;;;;5034122;28;20447;-68
2023/12/30 00:20:32;;;;;;;7.60;2.17;;;8.70;99.90;;;;;;5030877;28;20450;-68
2023/12/30 00:23:00;;;;;;;8.70;2.07;;;8.70;99.90;;;;;;5036156;28;20521;-68
2023/12/30 00:25:28;;;;;;;8.00;2.10;;;8.90;99.90;;;;;;5031402;28;20483;-65
2023/12/30 00:27:56;;;;;;;8.83;3.30;;;9.00;99.90;;;;;;5032369;28;20443;-68
2023/12/30 00:30:26;;;;;;;7.30;2.20;;;9.10;99.90;;;;;;5033813;28;20837;-68
2023/12/30 00:32:54;;;;;;;8.57;2.60;;;9.10;99.90;;;;;;5034726;28;21008;-68
2023/12/30 00:35:22;;;;;;;7.53;1.93;;;9.20;99.90;;;;;;5033573;28;20485;-68
2023/12/30 00:37:50;;;;;;;8.43;2.20;;;9.20;99.90;;;;;;5035095;28;20488;-68
2023/12/30 00:40:18;;;;;;;8.60;2.37;;;9.20;99.90;;;;;;5029967;28;20456;-68
2023/12/30 00:42:54;;;;;;;9.00;2.43;;;9.20;99.90;;;;;;5034642;28;20497;-68
2023/12/30 00:45:22;;;;;;;7.07;1.63;;;9.30;99.90;;;;;;5030722;28;20869;-68
2023/12/30 00:47:52;;;;;;;7.70;2.50;;;9.30;99.90;;;;;;5034080;28;20506;-68
2023/12/30 00:50:20;;;;;;;8.50;2.30;;;9.30;99.90;;;;;;5030242;28;20444;-68
2023/12/30 00:52:48;;;;;;;7.20;2.00;;;9.30;99.90;;;;;;5038262;28;20506;-68
2023/12/30 00:55:16;;;;;;;7.90;1.77;;;9.40;99.90;;;;;;5037424;28;21161;-68
2023/12/30 00:57:44;;;;;;;7.63;1.93;;;9.30;99.90;;;;;;5035502;28;20535;-68
2023/12/30 01:00:13;;;;;;;7.20;2.20;;;9.20;99.90;;;;;;5036372;28;20455;-68
2023/12/30 01:02:41;;;;;;;8.07;2.20;;;9.10;99.90;;;;;;5035500;28;20454;-68
2023/12/30 01:05:10;;;;;;;8.57;2.20;;;9.00;99.90;;;;;;5036599;28;20906;-68
2023/12/30 01:07:39;;;;;;;7.17;2.07;;;9.00;99.90;;;;;;5036020;28;20452;-68
2023/12/30 01:10:08;;;;;;;8.40;2.10;;;9.00;99.90;;;;;;5030354;28;20953;-68
2023/12/30 01:12:36;;;;;;;8.63;2.20;;;9.00;99.90;;;;;;5036807;28;20831;-68
2023/12/30 01:15:05;;;;;;;7.63;2.03;;;9.00;99.90;;;;;;5039140;28;20467;-68
2023/12/30 01:17:33;;;;;;;7.80;1.70;;;9.00;99.90;;;;;;5036996;28;20512;-68
2023/12/30 01:20:01;;;;;;;7.73;2.20;;;9.00;99.90;;;;;;5034981;28;20455;-67
2023/12/30 01:22:31;;;;;;;7.30;1.73;;;8.90;99.90;;;;;;5037663;28;20537;-68
2023/12/30 01:24:59;;;;;;;7.07;1.63;;;9.00;99.90;;;;;;5035075;28;20498;-68
2023/12/30 01:27:27;;;;;;;7.90;2.33;;;9.00;99.90;;;;;;5028224;28;20450;-68
2023/12/30 01:29:55;;;;;;;8.70;1.70;;;9.00;99.90;;;;;;5028978;28;20492;-69
2023/12/30 01:32:22;;;;;;;9.40;1.77;;;9.00;99.90;;;;;;5028605;28;20451;-68
2023/12/30 01:34:50;;;;;;;7.90;1.87;;;9.00;99.90;;;;;;5028898;28;20471;-67
2023/12/30 01:37:18;;;;;;;8.00;2.07;;;9.10;99.90;;;;;;5029176;28;20450;-69
2023/12/30 01:39:48;;;;;;;7.00;1.70;;;8.90;99.90;;;;;;5034479;28;20446;-68
2023/12/30 01:42:16;;;;;;;8.33;1.87;;;8.90;99.90;;;;;;5028576;28;20545;-68
2023/12/30 01:44:44;;;;;;;7.93;2.10;;;8.80;99.90;;;;;;5028280;28;20489;-69
2023/12/30 01:47:19;;;;;;;7.40;1.83;;;8.80;99.90;;;;;;5027570;28;20855;-70
2023/12/30 01:49:47;;;;;;;7.40;1.53;;;8.70;99.90;;;;;;5028578;28;20517;-69
2023/12/30 01:52:19;;;;;;;8.67;2.00;;;8.70;99.90;;;;;;5028412;28;20500;-68
2023/12/30 01:54:49;;;;;;;7.57;1.77;;;8.70;99.90;;;;;;5028355;28;20464;-66
2023/12/30 01:57:19;;;;;;;7.13;1.73;;;8.70;99.90;;;;;;5027659;28;21031;-67
2023/12/30 01:59:47;;;;;;;8.20;2.23;;;8.70;99.90;;;;;;5029993;28;20530;-68
2023/12/30 02:02:15;;;;;;;7.30;1.97;;;8.60;99.90;;;;;;5026941;28;20446;-69
2023/12/30 02:04:45;;;;;;;8.17;2.00;;;8.60;99.90;;;;;;5029687;28;20491;-68
2023/12/30 02:07:12;;;;;;;7.40;1.70;;;8.50;99.90;;;;;;5035468;28;20982;-68
2023/12/30 02:09:41;;;;;;;7.37;2.13;;;8.50;99.90;;;;;;5027966;28;20848;-69
2023/12/30 02:12:10;;;;;;;7.93;2.00;;;8.50;99.90;;;;;;5028046;28;20510;-68
2023/12/30 02:14:39;;;;;;;7.40;1.87;;;8.50;99.90;;;;;;5027664;28;20471;-68
2023/12/30 02:17:07;;;;;;;7.27;1.90;;;8.50;99.90;;;;;;5028083;28;20512;-69
2023/12/30 02:19:35;;;;;;;7.47;1.90;;;8.50;99.90;;;;;;5027172;28;20450;-68
2023/12/30 02:22:04;;;;;;;10.33;2.23;;;8.50;99.90;;;;;;5028081;28;20976;-68
2023/12/30 02:24:33;;;;;;;7.83;1.77;;;8.50;99.90;;;;;;5027278;28;20569;-66
2023/12/30 02:27:01;;;;;;;8.13;2.60;;;8.50;99.90;;;;;;5027189;28;20453;-68
2023/12/30 02:29:29;;;;;;;7.90;2.20;;;8.50;99.90;;;;;;5027645;28;20446;-68
2023/12/30 02:31:57;;;;;;;8.40;2.20;;;8.40;99.90;;;;;;5027626;28;20896;-68
2023/12/30 02:34:25;;;;;;;8.40;2.00;;;8.50;99.90;;;;;;5027016;28;20481;-68
2023/12/30 02:36:53;;;;;;;8.60;2.57;;;8.50;99.90;;;;;;5022141;28;20901;-68
2023/12/30 02:39:21;;;;;;;8.27;2.20;;;8.40;99.90;;;;;;5025817;28;20461;-68
2023/12/30 02:41:51;;;;;;;7.93;1.90;;;8.40;99.90;;;;;;5030402;28;20455;-66
2023/12/30 02:44:21;;;;;;;8.10;1.70;;;8.40;99.90;;;;;;5030764;28;20984;-66
2023/12/30 02:46:49;;;;;;;7.20;1.83;;;8.40;99.90;;;;;;5023234;28;20584;-66
2023/12/30 02:49:16;;;;;;;9.60;2.13;;;8.30;99.90;;;;;;5026353;28;20482;-66
2023/12/30 02:51:44;;;;;;;8.43;2.40;;;8.30;99.90;;;;;;5023419;28;20471;-66
2023/12/30 02:54:12;;;;;;;8.00;2.73;;;8.30;99.90;;;;;;5026478;28;20466;-65
2023/12/30 02:56:40;;;;;;;7.63;1.87;;;8.20;99.90;;;;;;5023237;28;20472;-66
2023/12/30 02:59:09;;;;;;;7.40;1.80;;;8.20;99.90;;;;;;5026647;28;20565;-66
2023/12/30 03:01:38;;;;;;;7.60;2.00;;;8.20;99.90;;;;;;5026533;28;20459;-65
2023/12/30 03:04:06;;;;;;;8.00;2.30;;;8.20;99.90;;;;;;5025270;28;20458;-66
2023/12/30 03:06:35;;;;;;;7.03;1.93;;;8.30;99.90;;;;;;5023318;28;20474;-66
2023/12/30 03:09:04;;;;;;;10.40;2.30;;;8.30;99.90;;;;;;5026737;28;20502;-67
2023/12/30 03:11:32;;;;;;;7.50;1.90;;;8.30;99.90;;;;;;5026059;28;20446;-66
2023/12/30 03:14:01;;;;;;;7.00;1.87;;;8.30;99.90;;;;;;5024170;28;20469;-66
2023/12/30 03:16:30;;;;;;;7.93;2.20;;;8.20;99.90;;;;;;5025390;28;20474;-66
2023/12/30 03:18:58;;;;;;;9.13;2.90;;;8.20;99.90;;;;;;5023238;28;20477;-66
2023/12/30 03:21:26;;;;;;;7.80;2.00;;;8.10;99.90;;;;;;5024955;28;20548;-67
2023/12/30 03:23:54;;;;;;;8.57;1.87;;;8.10;99.90;;;;;;5024650;28;20550;-66
2023/12/30 03:26:22;;;;;;;7.50;1.80;;;8.20;99.90;;;;;;5019477;28;20575;-66
2023/12/30 03:28:50;;;;;;;8.30;2.23;;;8.20;99.90;;;;;;5021831;28;20478;-66
2023/12/30 03:31:22;;;;;;;7.77;1.90;;;8.20;99.90;;;;;;5018342;28;20471;-66
2023/12/30 03:33:52;;;;;;;8.37;2.40;;;8.20;99.90;;;;;;5016300;28;20489;-67
2023/12/30 03:36:21;;;;;;;8.47;1.90;;;8.20;99.90;;;;;;5024532;28;20485;-66
2023/12/30 03:38:49;;;;;;;7.20;2.00;;;8.20;99.90;;;;;;5017923;28;20519;-66
2023/12/30 03:41:18;;;;;;;7.20;1.80;;;8.20;99.90;;;;;;5025577;28;20464;-66
2023/12/30 03:43:49;;;;;;;8.13;1.67;;;8.20;99.90;;;;;;5026103;28;20895;-66
2023/12/30 03:46:17;;;;;;;8.20;2.10;;;8.20;99.90;;;;;;5025414;28;20760;-67
2023/12/30 03:48:49;;;;;;;8.60;1.97;;;8.20;99.90;;;;;;5024739;28;20466;-67
2023/12/30 03:51:18;;;;;;;7.33;2.00;;;8.30;99.90;;;;;;5016312;28;20974;-66
2023/12/30 03:53:47;;;;;;;7.80;1.90;;;8.20;99.90;;;;;;5025768;28;20936;-66
2023/12/30 03:56:15;;;;;;;8.77;2.30;;;8.20;99.90;;;;;;5024711;28;20615;-67
2023/12/30 03:58:43;;;;;;;7.43;1.77;;;8.10;99.90;;;;;;5025403;28;21226;-67
2023/12/30 04:01:11;;;;;;;8.07;2.07;;;8.10;99.90;;;;;;5025722;28;20470;-67
2023/12/30 04:03:40;;;;;;;8.17;2.30;;;8.10;99.90;;;;;;5026275;28;20538;-66
2023/12/30 04:06:15;;;;;;;9.40;2.13;;;8.00;99.90;;;;;;5025551;28;20523;-66
2023/12/30 04:08:45;;;;;;;9.57;2.33;;;8.10;99.90;;;;;;5024447;28;20472;-66
2023/12/30 04:11:12;;;;;;;6.87;1.87;;;8.00;99.90;;;;;;5024522;28;20469;-67
2023/12/30 04:13:40;;;;;;;7.50;2.03;;;8.00;99.90;;;;;;5025696;28;20495;-66
2023/12/30 04:16:09;;;;;;;7.40;1.90;;;8.00;99.90;;;;;;5025310;28;20477;-67
2023/12/30 04:18:36;;;;;;;8.60;1.90;;;8.00;99.90;;;;;;5025396;28;20509;-66
2023/12/30 04:21:05;;;;;;;6.90;1.83;;;8.00;99.90;;;;;;5024195;28;20466;-66
2023/12/30 04:23:33;;;;;;;6.80;1.70;;;8.00;99.90;;;;;;5025482;28;20837;-66
2023/12/30 04:26:02;;;;;;;7.00;1.57;;;8.00;99.90;;;;;;5023741;28;20968;-66
2023/12/30 04:28:30;;;;;;;7.93;1.90;;;7.90;99.90;;;;;;5026563;28;20483;-66
2023/12/30 04:30:59;;;;;;;7.07;2.00;;;7.90;99.90;;;;;;5029295;28;20475;-66
2023/12/30 04:33:28;;;;;;;8.83;1.60;;;7.90;99.90;;;;;;5029320;28;20461;-66
2023/12/30 04:35:56;;;;;;;8.07;1.60;;;7.90;99.90;;;;;;5027597;28;20479;-67
2023/12/30 04:38:25;;;;;;;7.60;1.63;;;7.90;99.90;;;;;;5024642;28;20480;-66
2023/12/30 04:40:53;;;;;;;9.17;2.07;;;7.90;99.90;;;;;;5031781;28;20491;-66
2023/12/30 04:43:22;;;;;;;8.13;1.83;;;7.80;99.90;;;;;;5047599;28;20856;-66
2023/12/30 04:45:50;;;;;;;7.57;1.73;;;7.90;99.90;;;;;;5044154;28;20476;-66
2023/12/30 04:48:18;;;;;;;7.73;2.07;;;7.90;99.90;;;;;;5042527;28;20521;-66
2023/12/30 04:50:46;;;;;;;9.50;2.00;;;7.90;99.90;;;;;;5023732;28;20477;-67
2023/12/30 04:53:14;;;;;;;8.97;2.67;;;7.90;99.90;;;;;;5032034;28;20554;-66
2023/12/30 04:55:42;;;;;;;10.37;2.00;;;7.90;99.90;;;;;;5037732;28;20477;-66
2023/12/30 04:58:10;;;;;;;8.10;1.87;;;7.90;99.90;;;;;;5030502;28;20474;-66
2023/12/30 05:00:39;;;;;;;8.90;1.77;;;7.80;99.90;;;;;;5030201;28;20447;-67
2023/12/30 05:03:07;;;;;;;7.90;1.90;;;7.90;99.90;;;;;;5029464;28;20456;-66
2023/12/30 05:05:35;;;;;;;7.17;1.63;;;7.90;99.90;;;;;;5029134;28;20483;-66
2023/12/30 05:08:05;;;;;;;7.30;1.93;;;7.90;99.90;;;;;;5028876;28;20494;-66
2023/12/30 05:10:34;;;;;;;7.27;1.93;;;7.90;99.90;;;;;;5029494;28;21117;-66
2023/12/30 05:13:02;;;;;;;7.70;1.73;;;7.90;99.90;;;;;;5029290;28;20987;-66
2023/12/30 05:15:30;;;;;;;7.77;1.97;;;7.90;99.90;;;;;;5027740;28;20503;-66
2023/12/30 05:17:59;;;;;;;7.93;1.70;;;7.80;99.90;;;;;;5026322;28;20463;-66
2023/12/30 05:20:30;;;;;;;7.53;1.60;;;7.90;99.90;;;;;;5026423;28;20467;-66
2023/12/30 05:23:00;;;;;;;8.10;2.10;;;7.90;99.90;;;;;;5029040;28;20477;-66
2023/12/30 05:25:28;;;;;;;8.40;1.87;;;7.90;99.90;;;;;;5028476;28;20556;-66
2023/12/30 05:27:56;;;;;;;7.00;1.80;;;7.90;99.90;;;;;;5029395;28;20486;-66
2023/12/30 05:30:24;;;;;;;7.90;2.07;;;7.90;99.90;;;;;;5036084;28;20469;-66
2023/12/30 05:32:52;;;;;;;7.20;1.80;;;7.90;99.90;;;;;;5040982;28;20580;-67
2023/12/30 05:35:21;;;;;;;7.13;1.50;;;8.00;99.90;;;;;;5043470;28;20487;-67
2023/12/30 05:37:50;;;;;;;8.30;1.80;;;8.00;99.90;;;;;;5028204;28;20998;-67
2023/12/30 05:40:18;;;;;;;9.87;1.57;;;7.90;99.90;;;;;;5042578;28;20535;-66
2023/12/30 05:42:46;;;;;;;7.40;2.00;;;7.90;99.90;;;;;;5036227;28;20820;-67
2023/12/30 05:45:14;;;;;;;7.03;1.50;;;7.90;99.90;;;;;;5028891;28;20527;-66
2023/12/30 05:47:42;;;;;;;8.00;2.37;;;7.90;99.90;;;;;;5037772;28;21217;-66
2023/12/30 05:50:12;;;;;;;10.00;1.80;;;7.80;99.90;;;;;;5042391;28;20455;-67
2023/12/30 05:52:42;;;;;;;6.60;1.30;;;7.80;99.90;;;;;;5026926;28;20511;-67
2023/12/30 05:55:10;;;;;;;6.83;1.30;;;7.70;99.90;;;;;;5022725;28;20466;-66
2023/12/30 05:57:38;;;;;;;7.07;1.63;;;7.80;99.90;;;;;;5028758;28;20540;-66
2023/12/30 06:00:08;;;;;;;6.43;1.20;;;7.80;99.90;;;;;;5027965;28;20527;-66
2023/12/30 06:02:36;;;;;;;6.43;1.13;;;7.80;99.90;;;;;;5028867;28;20485;-66
2023/12/30 06:05:04;;;;;;;6.57;1.10;;;7.80;99.90;;;;;;5028255;28;20486;-66
2023/12/30 06:07:32;;;;;;;7.00;1.03;;;7.90;99.90;;;;;;5027716;28;21034;-66
2023/12/30 06:10:02;;;;;;;6.50;1.20;;;8.00;99.90;;;;;;5027367;28;20515;-66
2023/12/30 06:12:30;;;;;;;6.93;1.20;;;8.00;99.90;;;;;;5028698;28;20458;-66
2023/12/30 06:14:58;;;;;;;7.20;1.00;;;8.00;99.90;;;;;;5025203;28;20560;-66
2023/12/30 06:17:26;;;;;;;6.43;1.20;;;8.10;99.90;;;;;;5028766;28;20512;-66
2023/12/30 06:19:54;;;;;;;6.70;1.23;;;8.10;99.90;;;;;;5027531;28;20878;-66
2023/12/30 06:22:22;;;;;;;8.23;1.50;;;8.10;99.90;;;;;;5029943;28;20441;-66
2023/12/30 06:24:50;;;;;;;8.07;1.03;;;8.10;99.90;;;;;;5028350;28;20468;-66
2023/12/30 06:27:20;;;;;;;6.97;1.27;;;8.20;99.90;;;;;;5026088;28;20900;-66
2023/12/30 06:29:49;;;;;;;7.40;1.30;;;8.20;99.90;;;;;;5029604;28;20936;-66
2023/12/30 06:32:16;;;;;;;6.37;0.97;;;8.20;99.90;;;;;;5032122;28;20457;-66
2023/12/30 06:34:44;;;;;;;6.60;0.80;;;8.20;99.90;;;;;;5028629;28;20860;-66
2023/12/30 06:37:12;;;;;;;8.00;0.80;;;8.20;99.90;;;;;;5029318;28;20454;-67
2023/12/30 06:39:41;;;;;;;6.40;0.97;;;8.20;99.90;;;;;;5025683;28;20447;-66
2023/12/30 06:42:09;;;;;;;7.43;1.20;;;8.20;99.90;;;;;;5027845;28;20459;-66
2023/12/30 06:44:39;;;;;;;7.40;1.00;;;8.20;99.90;;;;;;5028708;28;20551;-66
2023/12/30 06:47:07;;;;;;;7.43;0.90;;;8.30;99.90;;;;;;5028106;28;20576;-66
2023/12/30 06:49:39;;;;;;;6.47;0.83;;;8.30;99.90;;;;;;5026568;28;20454;-66
2023/12/30 06:52:07;;;;;;;6.37;1.13;;;8.40;99.90;;;;;;5028111;28;20477;-66
2023/12/30 06:54:35;;;;;;;6.70;1.07;;;8.50;99.90;;;;;;5027668;28;20854;-66
2023/12/30 06:57:03;;;;;;;6.30;0.80;;;8.40;99.90;;;;;;5022135;28;20504;-66
2023/12/30 06:59:31;;;;;;;6.40;0.87;;;8.40;99.90;;;;;;5027371;28;20540;-66
2023/12/30 07:02:00;;;;;;;7.77;1.03;;;8.40;99.90;;;;;;5027402;28;20481;-67
2023/12/30 07:04:28;;;;;;;7.07;0.87;;;8.40;99.90;;;;;;5027520;28;20931;-66
2023/12/30 07:06:56;;;;;;;6.60;1.07;;;8.50;99.90;;;;;;5027029;28;20570;-66
2023/12/30 07:09:24;;;;;;;6.30;0.80;;;8.50;99.90;;;;;;5027672;28;20454;-67
2023/12/30 07:11:52;;;;;;;6.83;0.80;;;8.50;99.90;;;;;;5025980;28;20875;-67
2023/12/30 07:14:20;;;;;;;8.10;1.03;;;8.50;99.90;;;;;;5027233;28;20521;-66
2023/12/30 07:16:49;;;;;;;6.70;0.90;;;8.50;99.90;;;;;;5027044;28;20465;-66
2023/12/30 07:19:19;;;;;;;7.27;1.00;;;8.50;99.90;;;;;;5027410;28;20468;-66
2023/12/30 07:21:47;;;;;;;6.57;0.90;;;8.50;99.90;;;;;;5027295;28;20987;-68
2023/12/30 07:24:15;;;;;;;10.80;1.30;;;8.40;99.90;;;;;;5027168;28;20587;-66
2023/12/30 07:26:43;;;;;;;7.07;1.00;;;8.50;99.90;;;;;;5026666;28;20445;-67
2023/12/30 07:29:12;;;;;;;7.00;1.00;;;8.40;99.90;;;;;;5024688;28;20512;-66
2023/12/30 07:31:42;;;;;;;6.47;0.80;;;8.30;99.90;;;;;;5026993;28;20542;-66
2023/12/30 07:34:11;;;;;;;6.43;0.70;;;8.30;99.90;;;;;;5026945;28;20482;-66
2023/12/30 07:36:44;;;;;;;7.07;1.27;;;8.20;99.90;;;;;;5026848;28;20462;-66
2023/12/30 07:39:13;;;;;;;6.93;0.80;;;8.20;99.90;;;;;;5027174;28;20458;-66
2023/12/30 07:41:41;;;;;;;9.00;1.53;;;8.40;99.90;;;;;;5027030;28;20460;-66
2023/12/30 07:44:09;;;;;;;6.83;1.00;;;8.50;99.90;;;;;;5026302;28;20454;-66
2023/12/30 07:46:37;;;;;;;8.10;1.13;;;8.60;99.90;;;;;;5026258;28;20440;-66
2023/12/30 07:49:05;;;;;;;6.80;0.93;;;8.70;99.90;;;;;;5026004;28;20906;-66
2023/12/30 07:51:33;;;;;;;7.20;1.10;;;8.70;99.90;;;;;;5026626;28;20469;-66
2023/12/30 07:54:05;;;;;;;8.10;1.00;;;8.80;99.90;;;;;;5026699;28;20882;-66
2023/12/30 07:56:33;;;;;;;7.50;1.00;;;8.80;99.90;;;;;;5026446;28;20535;-66
2023/12/30 07:59:01;;;;;;;6.90;0.93;;;8.80;99.90;;;;;;5026853;28;20840;-66
2023/12/30 08:01:28;;;;;;;9.00;1.20;;;8.80;99.90;;;;;;5026112;28;20462;-66
2023/12/30 08:03:57;;;;;;;9.00;2.17;;;8.70;99.90;;;;;;5017399;28;20477;-66
2023/12/30 08:06:25;;;;;;;7.00;1.50;;;8.70;99.90;;;;;;5026154;28;20502;-66
2023/12/30 08:08:53;;;;;;;6.47;1.10;;;8.80;99.90;;;;;;5026555;28;20491;-66
2023/12/30 08:11:22;;;;;;;7.47;1.23;;;8.90;99.90;;;;;;5026507;28;20479;-66
2023/12/30 08:13:50;;;;;;;8.27;1.80;;;8.90;99.90;;;;;;5025985;28;20933;-66
2023/12/30 08:16:18;;;;;;;7.70;1.13;;;9.00;99.90;;;;;;5024988;28;20896;-66
2023/12/30 08:18:48;;;;;;;7.30;1.30;;;9.10;99.90;;;;;;5023703;28;21015;-67
2023/12/30 08:21:16;;;;;;;7.83;1.40;;;9.10;99.90;;;;;;5025652;28;20453;-67
2023/12/30 08:23:44;;;;;;;7.23;1.50;;;9.10;99.90;;;;;;5025997;28;20456;-66
2023/12/30 08:26:12;;;;;;;6.73;1.43;;;9.20;99.90;;;;;;5025868;28;20471;-66
2023/12/30 08:28:42;;;;;;;9.77;1.67;;;9.20;99.90;;;;;;5026194;28;20836;-66
2023/12/30 08:31:10;;;;;;;8.83;1.50;;;9.30;99.90;;;;;;5026645;28;20451;-66
2023/12/30 08:33:38;;;;;;;7.27;1.20;;;9.30;99.90;;;;;;5019018;28;20471;-66
2023/12/30 08:36:06;;;;;;;8.93;1.47;;;9.40;99.90;;;;;;5024070;28;20565;-66
2023/12/30 08:38:34;;;;;;;7.30;1.60;;;9.40;99.90;;;;;;5023914;28;20479;-66
2023/12/30 08:41:02;;;;;;;6.83;1.40;;;9.40;99.90;;;;;;5025563;28;20454;-66
2023/12/30 08:43:30;;;;;;;6.63;1.23;;;9.50;99.90;;;;;;5026516;28;20448;-66
2023/12/30 08:45:59;;;;;;;7.07;1.33;;;9.60;99.90;;;;;;5018267;28;20545;-66
2023/12/30 08:48:28;;;;;;;6.73;1.33;;;9.60;99.90;;;;;;5026066;28;20500;-66
2023/12/30 08:50:56;;;;;;;7.50;1.30;;;9.60;99.90;;;;;;5026058;28;20484;-66
2023/12/30 08:53:24;;;;;;;7.60;1.00;;;9.70;99.90;;;;;;5025567;28;20464;-67
2023/12/30 08:55:54;;;;;;;7.33;0.83;;;9.60;99.90;;;;;;5025571;28;20498;-67
2023/12/30 08:58:24;;;;;;;6.90;1.40;;;9.70;99.90;;;;;;5026631;28;20456;-66
2023/12/30 09:00:53;;;;;;;7.10;1.20;;;9.80;99.90;;;;;;5026020;28;20458;-66
2023/12/30 09:03:22;;;;;;;7.60;1.10;;;9.80;99.90;;;;;;5025925;28;20453;-66
2023/12/30 09:05:50;;;;;;;7.30;1.50;;;9.80;99.90;;;;;;5025531;28;20582;-66
2023/12/30 09:08:19;;;;;;;6.97;1.20;;;9.80;99.90;;;;;;5025454;28;20516;-67
2023/12/30 09:10:47;;;;;;;6.87;1.30;;;9.80;99.90;;;;;;5025934;28;20453;-66
2023/12/30 09:13:15;;;;;;;6.60;1.17;;;9.80;99.90;;;;;;5033062;28;20457;-66
2023/12/30 09:15:43;;;;;;;9.17;1.30;;;9.80;99.90;;;;;;5029918;28;20479;-66
2023/12/30 09:18:11;;;;;;;7.07;1.37;;;9.70;99.90;;;;;;5028690;28;20457;-67
2023/12/30 09:20:44;;;;;;;7.40;1.80;;;9.70;99.90;;;;;;5028689;28;20546;-67
2023/12/30 09:23:12;;;;;;;8.10;2.30;;;9.60;99.90;;;;;;5029362;28;20472;-67
2023/12/30 09:25:40;;;;;;;7.73;1.57;;;9.50;99.90;;;;;;5034704;28;20506;-67
2023/12/30 09:28:09;;;;;;;6.60;1.10;;;9.50;99.90;;;;;;5040703;28;20513;-67
2023/12/30 09:30:37;;;;;;;6.60;1.10;;;9.50;99.90;;;;;;5033892;28;20474;-67
2023/12/30 09:33:05;;;;;;;8.03;1.33;;;9.50;99.90;;;;;;5038848;28;20471;-67
2023/12/30 09:35:39;;;;;;;8.17;1.30;;;9.50;99.90;;;;;;5033621;28;20476;-67
2023/12/30 09:38:10;;;;;;;7.07;1.33;;;9.50;99.90;;;;;;5031483;28;20444;-66
2023/12/30 09:40:38;;;;;;;9.00;1.60;;;9.60;99.90;;;;;;5031088;28;20498;-66
2023/12/30 09:43:07;;;;;;;8.67;1.30;;;9.70;99.90;;;;;;5021821;28;20547;-66
2023/12/30 09:45:39;;;;;;;7.50;1.30;;;9.70;99.90;;;;;;5028409;28;20579;-67
2023/12/30 09:48:09;;;;;;;6.80;1.40;;;9.70;99.90;;;;;;5029708;28;20501;-67
2023/12/30 09:50:37;;;;;;;7.30;1.20;;;9.60;99.90;;;;;;5042868;28;20485;-67
2023/12/30 09:53:05;;;;;;;6.73;1.07;;;9.50;99.90;;;;;;5026307;28;20582;-67
2023/12/30 09:55:34;;;;;;;7.60;1.10;;;9.30;99.90;;;;;;5037839;28;20477;-67
2023/12/30 09:58:05;;;;;;;6.10;0.80;;;9.30;99.90;;;;;;5032806;28;20465;-67
2023/12/30 10:00:38;;;;;;;7.20;1.13;;;9.40;99.90;;;;;;5048283;28;20455;-67
2023/12/30 10:03:07;;;;;;;7.33;1.30;;;9.40;99.90;;;;;;5021828;28;20450;-68
2023/12/30 10:05:35;;;;;;;6.60;1.00;;;9.50;99.90;;;;;;5027241;28;20479;-67
2023/12/30 10:08:03;;;;;;;8.50;1.37;;;9.60;99.90;;;;;;5027596;28;20517;-66
2023/12/30 10:10:51;;;;;;;6.80;1.03;;;9.80;99.90;;;;;;5028004;28;20493;-66
2023/12/30 10:13:22;;;;;;;8.50;1.20;;;10.00;99.90;;;;;;5020621;28;20508;-67
2023/12/30 10:15:51;;;;;;;6.90;0.90;;;10.10;99.90;;;;;;5026786;28;20472;-66
2023/12/30 10:18:19;;;;;;;7.30;0.90;;;10.20;99.90;;;;;;5033313;28;20558;-67
2023/12/30 10:20:47;;;;;;;11.50;1.47;;;10.30;99.90;;;;;;5033006;28;20505;-67
2023/12/30 10:23:15;;;;;;;7.17;0.80;;;10.50;99.90;;;;;;5037201;28;21322;-67
2023/12/30 10:25:43;;;;;;;6.87;1.17;;;10.90;99.90;;;;;;5036441;28;20591;-67
2023/12/30 10:28:13;;;;;;;7.27;0.73;;;11.30;99.90;;;;;;5033418;28;20961;-67
2023/12/30 10:30:41;;;;;;;7.10;0.90;;;11.60;99.90;;;;;;5032563;28;20483;-69
2023/12/30 10:33:10;;;;;;;7.40;0.80;;;11.80;99.90;;;;;;5037898;28;20445;-67
2023/12/30 10:35:40;;;;;;;7.67;1.10;;;11.80;99.90;;;;;;5035694;28;20556;-67
2023/12/30 10:38:09;;;;;;;5.90;0.50;;;11.70;99.90;;;;;;5035995;28;20447;-67
2023/12/30 10:40:38;;;;;;;6.00;0.60;;;11.70;99.90;;;;;;5033891;28;20443;-68
2023/12/30 10:43:06;;;;;;;6.60;0.70;;;11.70;99.90;;;;;;5035181;28;20445;-69
2023/12/30 10:45:36;;;;;;;6.30;0.80;;;11.50;99.90;;;;;;5029479;28;20484;-67
2023/12/30 10:48:07;;;;;;;6.50;0.80;;;11.20;99.90;;;;;;5027840;28;20894;-67
2023/12/30 10:50:38;;;;;;;6.57;0.77;;;11.00;99.90;;;;;;5025558;28;20484;-67
2023/12/30 10:53:11;;;;;;;6.27;0.50;;;10.80;99.90;;;;;;5035239;28;20483;-68
2023/12/30 10:55:48;;;;;;;6.10;0.60;;;10.80;99.90;;;;;;5034909;28;20499;-68
2023/12/30 10:58:18;;;;;;;6.10;0.77;;;10.90;99.90;;;;;;5034179;28;20612;-68
2023/12/30 11:00:52;;;;;;;6.50;0.73;;;10.90;99.90;;;;;;5036312;28;20517;-68
2023/12/30 11:03:21;;;;;;;6.00;0.73;;;10.90;99.90;;;;;;5032333;28;20504;-67
2023/12/30 11:05:57;;;;;;;6.00;0.67;;;11.00;99.90;;;;;;5029554;28;20470;-68
2023/12/30 11:08:25;;;;;;;6.70;0.80;;;11.10;99.90;;;;;;5032034;28;20960;-68
2023/12/30 11:10:53;;;;;;;6.50;0.80;;;11.10;99.90;;;;;;5039303;28;20473;-68
2023/12/30 11:13:21;;;;;;;6.00;0.80;;;11.10;99.90;;;;;;5029492;28;21011;-68
2023/12/30 11:15:50;;;;;;;6.17;0.80;;;11.10;99.90;;;;;;5032009;28;20986;-66
2023/12/30 11:18:46;;;;;;;7.60;0.77;;;11.20;99.90;;;;;;5040523;28;20451;-68
2023/12/30 11:21:34;;;;;;;6.40;0.60;;;11.20;99.90;;;;;;5036356;28;20527;-68
2023/12/30 11:24:02;;;;;;;6.13;0.70;;;11.30;99.90;;;;;;5039654;28;20506;-67
2023/12/30 11:26:31;;;;;;;5.67;0.50;;;11.40;99.90;;;;;;5036955;28;20444;-70
2023/12/30 11:29:00;;;;;;;6.00;0.87;;;11.40;99.90;;;;;;5031536;28;20811;-68
2023/12/30 11:31:32;;;;;;;8.03;1.23;;;11.50;99.90;;;;;;5032924;28;20564;-67
2023/12/30 11:34:01;;;;;;;6.63;0.80;;;11.50;99.90;;;;;;5035482;28;21034;-67
2023/12/30 12:11:37;;;;;;;8.03;1.10;;;12.40;99.90;;;;;;5235115;23;20953;-69
2023/12/30 12:14:05;;;;;;;7.27;0.63;;;12.50;99.90;;;;;;4967781;28;20442;-69
2023/12/30 12:16:33;;;;;;;7.23;0.70;;;12.60;99.90;;;;;;4976467;28;20452;-69
2023/12/30 12:19:03;;;;;;;5.80;0.57;;;12.70;99.90;;;;;;4971947;28;20456;-69
2023/12/30 12:21:31;;;;;;;6.10;0.50;;;12.50;99.90;;;;;;4972943;28;20475;-68
2023/12/30 12:23:59;;;;;;;6.30;0.60;;;12.30;99.90;;;;;;4977667;28;20870;-69
2023/12/30 12:26:29;;;;;;;7.40;0.70;;;12.10;99.90;;;;;;4975173;28;20444;-68
2023/12/30 12:29:01;;;;;;;5.90;0.70;;;11.90;99.90;;;;;;4966835;28;20442;-68
2023/12/30 12:31:30;;;;;;;7.17;0.80;;;11.80;99.90;;;;;;4968898;28;20502;-68
2023/12/30 12:33:58;;;;;;;6.13;0.60;;;11.80;99.90;;;;;;4967208;28;20876;-67
2023/12/30 12:36:26;;;;;;;6.03;0.50;;;11.70;99.90;;;;;;4963666;28;20543;-70
2023/12/30 12:38:54;;;;;;;5.73;0.50;;;11.80;99.90;;;;;;4983154;28;20943;-69
2023/12/30 12:41:22;;;;;;;5.60;0.60;;;11.90;99.90;;;;;;4975439;28;21005;-68
2023/12/30 12:43:50;;;;;;;6.23;0.77;;;12.10;99.90;;;;;;4980395;28;20496;-68
2023/12/30 12:46:20;;;;;;;5.97;0.40;;;12.20;99.90;;;;;;4980110;28;20443;-68
2023/12/30 12:48:48;;;;;;;6.70;1.00;;;12.10;99.90;;;;;;4982068;28;20455;-69
2023/12/30 12:51:16;;;;;;;6.00;0.60;;;12.00;99.90;;;;;;4984260;28;21116;-69
2023/12/30 12:53:44;;;;;;;6.20;0.60;;;11.90;99.90;;;;;;4980048;28;20485;-68
2023/12/30 12:56:12;;;;;;;6.20;0.70;;;11.80;99.90;;;;;;4983063;28;20463;-68
2023/12/30 12:58:40;;;;;;;6.20;0.80;;;11.70;99.90;;;;;;4982649;28;20561;-68
2023/12/30 13:01:09;;;;;;;6.70;0.80;;;11.70;99.90;;;;;;4981193;28;20519;-68
2023/12/30 13:03:38;;;;;;;10.53;1.97;;;11.70;99.90;;;;;;4974704;28;20442;-69
2023/12/30 13:06:12;;;;;;;6.50;1.13;;;11.70;99.90;;;;;;4976881;28;20445;-67
2023/12/30 13:08:41;;;;;;;6.47;0.80;;;11.70;99.90;;;;;;4978918;28;21215;-68
2023/12/30 13:11:09;;;;;;;6.33;0.53;;;11.70;99.90;;;;;;4984613;28;21017;-68
2023/12/30 13:13:37;;;;;;;6.60;0.87;;;11.70;99.90;;;;;;4980461;28;20968;-68
2023/12/30 13:16:06;;;;;;;6.17;0.70;;;11.60;99.90;;;;;;4986119;28;20585;-68
2023/12/30 13:18:34;;;;;;;7.00;0.60;;;11.60;99.90;;;;;;4986187;28;20492;-67
2023/12/30 13:21:06;;;;;;;5.90;0.50;;;11.40;99.90;;;;;;4981116;28;20462;-67
2023/12/30 13:23:34;;;;;;;5.90;0.77;;;11.50;99.90;;;;;;4982330;28;20444;-68
2023/12/30 13:26:02;;;;;;;6.00;0.80;;;11.40;99.90;;;;;;4980342;28;20444;-67
2023/12/30 13:28:31;;;;;;;6.10;0.50;;;11.50;99.90;;;;;;4983877;28;20460;-67
2023/12/30 13:30:59;;;;;;;6.37;0.70;;;11.40;99.90;;;;;;4985327;28;20583;-68
2023/12/30 13:33:27;;;;;;;6.70;0.70;;;11.40;99.90;;;;;;4970856;28;20450;-68
2023/12/30 13:35:56;;;;;;;7.50;1.33;;;11.40;99.90;;;;;;4970137;28;20478;-67
2023/12/30 13:38:27;;;;;;;7.17;1.60;;;11.40;99.90;;;;;;4970421;28;20464;-69